Latest Weather Observations for Merriwa

IDN60801

Issued at 9:35 am EDT Tuesday 21 October 2014 (issued every 30 minutes, with the page automatically refreshed every 10 minutes)

About weather observations | Map of weather stations | Latest weather observations for NSW | Other Formats
Station Details ID: 061287 Name: MERRIWA (ROSCOMMON) Lat: -32.19 Lon: 150.17 Height: 375.0 m
Data from the previous 72 hours. | See also: Recent months at Merriwa
Date/Time
EDT
Temp
°C
App
Temp
°C
Dew
Point
Rel
Hum
%
Delta-T
°C
Wind Press
QNH
hPa
Press
MSL
hPa
Rain
since 9 am
mm
Dir
 
Spd
km/h
Gust
km/h
Spd
kts
Gust
kts
21/09:30am 16.3 10.9 9.5 64 3.6 E 28 35 15 19 1031.6 1031.1 0.0
21/09:00am 14.8 9.9 9.8 72 2.6 ESE 26 35 14 19 1031.5 1031.0 0.0
21/08:30am 14.4 9.5 10.0 75 2.3 ESE 26 35 14 19 1031.4 1030.9 0.0
21/08:00am 13.7 9.2 10.1 79 1.9 E 24 32 13 17 1031.0 1030.6 0.0
21/07:30am 13.1 9.0 10.1 82 1.6 ESE 22 32 12 17 1030.6 1030.1 0.0
21/07:00am 12.7 9.0 10.2 85 1.3 E 20 28 11 15 1030.3 1029.8 0.0
21/06:30am 12.0 8.3 10.1 88 1.0 ESE 20 32 11 17 1029.9 1029.4 0.0
21/06:00am 11.5 7.9 9.9 90 0.8 ESE 19 26 10 14 1029.6 1029.1 0.0
21/05:30am 12.0 8.3 10.2 89 0.9 ESE 20 30 11 16 1029.3 1028.8 0.0
21/05:00am 12.7 8.2 10.2 85 1.3 ESE 24 33 13 18 1029.2 1028.7 0.0
21/04:30am 12.8 7.6 10.2 84 1.4 ESE 28 39 15 21 1029.2 1028.7 0.0
21/04:00am 12.8 7.6 10.3 85 1.3 ESE 28 39 15 21 1029.1 1028.6 0.0
21/03:30am 12.7 7.5 10.2 85 1.3 ESE 28 39 15 21 1029.1 1028.6 0.0
21/03:00am 13.1 8.4 10.6 85 1.3 ESE 26 35 14 19 1029.2 1028.7 0.0
21/02:30am 13.2 7.4 10.7 85 1.3 ESE 32 44 17 24 1029.3 1028.8 0.0
21/02:00am 13.3 8.3 10.8 85 1.3 ESE 28 39 15 21 1029.4 1028.9 0.0
21/01:30am 13.3 8.9 10.5 83 1.5 ESE 24 39 13 21 1029.6 1029.1 0.0
21/01:00am 13.5 8.0 10.7 83 1.5 ESE 30 43 16 23 1029.8 1029.3 0.0
21/12:30am 13.7 8.8 11.2 85 1.3 ESE 28 39 15 21 1030.0 1029.5 0.0
21/12:00am 13.9 8.5 10.9 82 1.6 ESE 30 43 16 23 1030.1 1029.6 0.0
 
Date/Time
EDT
Temp
°C
App
Temp
°C
Dew
Point
Rel
Hum
%
Delta-T
°C
Wind Press
QNH
hPa
Press
MSL
hPa
Rain
since 9 am
mm
Dir
 
Spd
km/h
Gust
km/h
Spd
kts
Gust
kts
20/11:30pm 14.0 9.1 11.2 83 1.5 ESE 28 43 15 23 1030.2 1029.7 0.0
20/11:00pm 14.3 8.7 11.6 84 1.5 ESE 32 48 17 26 1030.1 1029.6 0.0
20/10:30pm 14.4 9.2 11.7 84 1.5 ESE 30 41 16 22 1030.1 1029.6 0.0
20/10:00pm 14.2 10.5 12.6 90 0.9 SE 24 33 13 18 1029.9 1029.4 0.0
20/09:30pm 15.0 9.6 12.3 84 1.5 ESE 32 46 17 25 1029.8 1029.3 0.0
20/09:25pm 15.0 10.5 12.5 85 1.4 ESE 28 46 15 25 1029.7 1029.2 0.0
20/09:00pm 15.4 11.1 12.2 81 1.8 ESE 26 39 14 21 1029.4 1028.9 0.0
20/08:30pm 16.1 11.3 11.7 75 2.4 ESE 28 41 15 22 1029.1 1028.6 0.0
20/08:00pm 16.3 11.7 11.2 72 2.8 E 26 35 14 19 1028.6 1028.1 0.0
20/07:30pm 16.8 11.3 10.6 67 3.4 ESE 30 43 16 23 1028.2 1027.7 0.0
20/07:00pm 17.5 11.9 10.1 62 4.0 ESE 30 39 16 21 1027.8 1027.3 0.0
20/06:30pm 17.8 12.9 9.9 60 4.3 ESE 26 37 14 20 1027.6 1027.1 0.0
20/06:00pm 18.4 12.3 9.7 57 4.7 ESE 32 43 17 23 1027.5 1027.0 0.0
20/05:30pm 18.5 12.4 9.8 57 4.7 ESE 32 43 17 23 1027.4 1026.9 0.0
20/05:00pm 19.3 13.3 10.0 55 5.0 ESE 32 43 17 23 1027.2 1026.7 0.0
20/04:30pm 20.2 14.3 10.6 54 5.3 ESE 32 44 17 24 1026.9 1026.4 0.0
20/04:00pm 20.9 15.1 10.7 52 5.6 ESE 32 46 17 25 1027.0 1026.5 0.0
20/03:30pm 21.9 16.5 11.0 50 6.1 ESE 30 41 16 22 1027.0 1026.5 0.0
20/03:00pm 21.8 15.5 10.9 50 6.1 ESE 35 46 19 25 1027.2 1026.7 0.0
20/02:38pm 22.2 17.3 11.3 50 6.2 E 28 52 15 28 1027.2 1026.7 0.0
20/02:30pm 22.5 17.3 11.6 50 6.2 ESE 30 43 16 23 1027.3 1026.8 0.0
20/02:05pm 22.5 17.3 11.6 50 6.2 ESE 30 48 16 26 1027.6 1027.1 0.0
20/02:00pm 21.9 16.0 11.0 50 6.1 ESE 33 48 18 26 1027.8 1027.3 0.0
20/01:30pm 21.9 16.0 11.3 51 6.0 ESE 33 48 18 26 1027.9 1027.4 0.0
20/01:00pm 21.5 14.9 11.5 53 5.6 ESE 37 46 20 25 1027.9 1027.4 0.0
20/12:30pm 22.6 17.0 12.0 51 6.1 ESE 33 44 18 24 1027.9 1027.4 0.0
20/12:00pm 22.2 16.5 11.9 52 5.9 ESE 33 48 18 26 1028.1 1027.6 0.0
20/11:30am 22.3 16.7 11.4 50 6.2 E 32 46 17 25 1028.0 1027.5 0.0
20/11:00am 24.1 18.8 11.1 44 7.4 E 30 41 16 22 1027.8 1027.3 0.0
20/10:30am 24.6 19.5 7.7 34 9.1 E 24 33 13 18 1027.4 1026.9 0.0
20/10:00am 24.1 19.7 7.3 34 8.9 SE 20 35 11 19 1027.1 1026.6 0.0
20/09:30am 23.9 21.6 5.8 31 9.4 WSW 7 13 4 7 1026.2 1025.7 0.0
20/09:00am 21.4 18.9 6.5 38 7.7 W 9 11 5 6 1025.9 1025.3 0.0
20/08:30am 18.2 16.2 6.1 45 6.1 W 6 9 3 5 1025.6 1025.1 0.0
20/08:00am 15.4 13.2 6.1 54 4.6 SSW 7 11 4 6 1025.5 1025.0 0.0
20/07:30am 12.7 11.5 6.3 65 3.1 WSW 2 9 1 5 1025.0 1024.5 0.0
20/07:00am 9.6 8.5 5.2 74 2.0 CALM 0 0 0 0 1024.6 1024.1 0.0
20/06:30am 7.2 5.8 3.4 77 1.6 CALM 0 0 0 0 1024.4 1023.9 0.0
20/06:00am 9.0 7.6 3.8 70 2.3 CALM 0 0 0 0 1024.2 1023.7 0.0
20/05:30am 9.1 6.7 4.3 72 2.2 WNW 6 7 3 4 1024.0 1023.5 0.0
20/05:00am 9.0 6.4 4.0 71 2.2 WNW 7 9 4 5 1023.6 1023.0 0.0
20/04:30am 8.5 6.0 3.8 72 2.1 NW 6 7 3 4 1023.6 1023.0 0.0
20/04:00am 10.5 7.5 4.2 65 2.9 WNW 9 11 5 6 1023.8 1023.2 0.0
20/03:30am 11.3 8.0 4.7 64 3.1 W 11 15 6 8 1023.9 1023.4 0.0
20/03:00am 11.0 8.1 4.9 66 2.8 W 9 9 5 5 1024.0 1023.5 0.0
20/02:30am 10.5 9.3 4.4 66 2.8 CALM 0 0 0 0 1024.0 1023.5 0.0
20/02:00am 9.7 7.3 4.1 68 2.5 W 6 7 3 4 1024.1 1023.6 0.0
20/01:30am 9.3 6.3 3.9 69 2.4 W 9 11 5 6 1024.4 1023.9 0.0
20/01:00am 12.2 9.3 4.4 59 3.6 W 9 13 5 7 1024.6 1024.1 0.0
20/12:30am 11.3 8.8 4.5 63 3.1 W 7 9 4 5 1024.7 1024.2 0.0
20/12:00am 11.1 8.6 4.6 64 3.0 WNW 7 9 4 5 1024.7 1024.2 0.0
 
Date/Time
EDT
Temp
°C
App
Temp
°C
Dew
Point
Rel
Hum
%
Delta-T
°C
Wind Press
QNH
hPa
Press
MSL
hPa
Rain
since 9 am
mm
Dir
 
Spd
km/h
Gust
km/h
Spd
kts
Gust
kts
19/11:30pm 11.1 9.9 4.8 65 2.9 CALM 0 0 0 0 1024.8 1024.3 0.0
19/11:00pm 12.3 9.7 4.0 57 3.8 NNE 7 9 4 5 1024.7 1024.2 0.0
19/10:30pm 13.4 10.8 3.2 50 4.7 NE 6 9 3 5 1024.9 1024.4 0.0
19/10:00pm 16.3 13.5 3.4 42 6.0 WNW 7 9 4 5 1024.8 1024.3 0.0
19/09:30pm 17.4 13.9 3.3 39 6.7 W 11 15 6 8 1024.7 1024.2 0.0
19/09:00pm 17.9 14.6 2.6 36 7.1 NNE 9 11 5 6 1024.3 1023.8 0.0
19/08:30pm 18.9 16.0 2.7 34 7.6 N 7 9 4 5 1024.0 1023.5 0.0
19/08:00pm 18.8 15.7 3.4 36 7.3 NNE 9 9 5 5 1023.7 1023.1 0.0
19/07:30pm 21.0 17.9 3.7 32 8.4 NE 9 11 5 6 1023.4 1022.8 0.0
19/07:00pm 22.8 19.8 4.3 30 9.2 NE 9 9 5 5 1023.2 1022.6 0.0
19/06:30pm 26.0 22.8 3.3 23 11.4 NE 9 13 5 7 1023.0 1022.4 0.0
19/06:00pm 27.3 23.9 1.7 19 12.5 E 9 15 5 8 1022.7 1022.2 0.0
19/05:30pm 27.4 24.4 1.8 19 12.6 E 7 13 4 7 1022.7 1022.2 0.0
19/05:00pm 27.9 25.1 2.2 19 12.7 NNW 6 7 3 4 1022.8 1022.3 0.0
19/04:30pm 28.7 26.3 2.1 18 13.3 ESE 4 9 2 5 1023.0 1022.4 0.0
19/04:00pm 27.6 24.1 1.2 18 12.8 SSW 9 13 5 7 1023.3 1022.7 0.0
19/03:30pm 27.4 24.0 1.8 19 12.6 SSW 9 15 5 8 1023.6 1023.0 0.0
19/03:00pm 27.4 24.5 2.5 20 12.4 WNW 7 11 4 6 1024.1 1023.6 0.0
19/02:30pm 25.9 22.4 1.2 20 11.9 ESE 9 19 5 10 1024.6 1024.1 0.0
19/02:00pm 25.8 22.8 1.8 21 11.6 SW 7 13 4 7 1025.1 1024.6 0.0
19/01:30pm 25.9 23.0 2.6 22 11.5 N 7 13 4 7 1025.6 1025.1 0.0
19/01:00pm 25.7 23.3 5.3 27 10.5 SSE 7 13 4 7 1026.2 1025.7 0.0
19/12:30pm 24.1 21.1 4.0 27 10.1 N 9 15 5 8 1026.6 1026.1 0.0
19/12:00pm 24.0 21.1 4.9 29 9.7 NNE 9 17 5 9 1027.1 1026.6 0.0
19/11:30am 23.1 20.9 5.5 32 9.0 NE 6 13 3 7 1027.6 1027.1 0.0
19/11:00am 21.2 18.6 5.9 37 7.8 ENE 9 17 5 9 1028.1 1027.6 0.0
19/10:30am 19.2 17.2 7.0 45 6.3 ENE 7 13 4 7 1028.4 1028.0 0.0
19/10:00am 17.8 16.2 8.6 55 4.8 ENE 7 11 4 6 1028.9 1028.4 0.0
19/09:30am 15.9 14.3 8.6 62 3.8 SSE 7 13 4 7 1029.0 1028.5 0.0
19/09:00am 14.9 13.5 8.8 67 3.1 ESE 6 7 3 4 1029.0 1028.5 0.0
19/08:30am 13.7 12.2 9.2 74 2.3 ENE 7 9 4 5 1028.6 1028.1 0.0
19/08:00am 10.8 10.6 8.9 88 1.0 CALM 0 0 0 0 1028.6 1028.1 0.0
19/07:30am 8.2 7.7 7.9 98 0.1 CALM 0 0 0 0 1028.7 1028.2 0.0
19/07:00am 6.1 4.0 6.0 99 0.0 ENE 6 9 3 5 1028.4 1028.0 0.0
19/06:30am 3.6 0.8 3.3 98 0.1 ENE 7 7 4 4 1027.9 1027.4 0.0
19/06:00am 4.7 2.3 4.4 98 0.1 ENE 6 7 3 4 1027.3 1026.8 0.0
19/05:30am 4.4 3.1 4.1 98 0.1 CALM 0 0 0 0 1027.2 1026.7 0.0
19/05:00am 5.0 3.8 4.7 98 0.1 CALM 0 6 0 3 1027.2 1026.7 0.0
19/04:30am 4.9 2.4 4.6 98 0.1 ENE 7 7 4 4 1027.1 1026.6 0.0
19/04:00am 5.9 3.6 5.6 98 0.1 ENE 7 7 4 4 1027.1 1026.6 0.0
19/03:30am 5.5 3.2 4.8 95 0.3 ENE 6 7 3 4 1027.2 1026.7 0.0
19/03:00am 6.4 4.3 5.7 95 0.3 ENE 6 6 3 3 1027.3 1026.8 0.0
19/02:30am 7.3 5.3 6.1 92 0.6 ENE 6 7 3 4 1027.4 1026.9 0.0
19/02:00am 7.7 5.8 6.5 92 0.6 E 6 7 3 4 1027.7 1027.2 0.0
19/01:30am 7.9 6.0 6.5 91 0.7 E 6 7 3 4 1027.9 1027.4 0.0
19/01:00am 7.9 5.8 6.5 91 0.7 E 7 7 4 4 1028.0 1027.5 0.0
19/12:30am 8.1 5.9 6.1 87 0.9 E 7 11 4 6 1028.0 1027.5 0.0
19/12:00am 8.5 6.2 5.8 83 1.2 E 7 11 4 6 1028.2 1027.7 0.0
 
Date/Time
EDT
Temp
°C
App
Temp
°C
Dew
Point
Rel
Hum
%
Delta-T
°C
Wind Press
QNH
hPa
Press
MSL
hPa
Rain
since 9 am
mm
Dir
 
Spd
km/h
Gust
km/h
Spd
kts
Gust
kts
18/11:30pm 9.4 6.4 6.1 80 1.6 E 11 13 6 7 1028.2 1027.7 0.0
18/11:00pm 10.1 7.5 6.1 76 1.9 E 9 13 5 7 1028.2 1027.7 0.0
18/10:30pm 11.5 9.4 6.8 73 2.3 ESE 7 11 4 6 1028.1 1027.6 0.0
18/10:00pm 13.3 10.6 7.3 67 3.0 E 11 15 6 8 1027.9 1027.4 0.0
18/09:30pm 14.9 10.6 7.7 62 3.6 E 20 28 11 15 1027.8 1027.3 0.0
18/09:00pm 14.7 10.8 7.3 61 3.7 E 17 24 9 13 1027.5 1027.0 0.0
18/08:30pm 15.5 11.5 6.5 55 4.5 E 17 20 9 11 1027.2 1026.7 0.0
18/08:00pm 14.7 10.8 5.5 54 4.4 E 15 19 8 10 1026.8 1026.3 0.0
18/07:30pm 16.2 13.3 4.9 47 5.5 E 9 15 5 8 1026.3 1025.8 0.0
18/07:00pm 18.1 14.8 4.3 40 6.6 E 11 19 6 10 1026.1 1025.5 0.0
18/06:30pm 19.9 15.8 4.4 36 7.6 E 15 20 8 11 1025.9 1025.3 0.0
18/06:00pm 20.9 17.2 4.5 34 8.1 E 13 22 7 12 1025.5 1025.0 0.0
18/05:30pm 21.5 17.1 4.6 33 8.4 E 17 24 9 13 1025.4 1024.9 0.0
18/05:00pm 21.9 18.3 4.9 33 8.5 SE 13 19 7 10 1025.3 1024.8 0.0
18/04:30pm 21.9 17.5 4.9 33 8.5 SE 17 28 9 15 1025.2 1024.7 0.0
18/04:00pm 22.1 17.8 5.1 33 8.5 SSE 17 26 9 14 1025.2 1024.7 0.0
18/03:30pm 22.2 19.5 5.6 34 8.5 SE 9 17 5 9 1025.8 1025.2 0.0
18/03:00pm 21.9 18.7 5.3 34 8.4 E 11 24 6 13 1026.1 1025.5 0.0
18/02:30pm 21.1 18.0 5.5 36 7.9 E 11 22 6 12 1026.3 1025.8 0.0
18/02:00pm 21.3 17.5 5.6 36 7.9 ESE 15 30 8 16 1026.7 1026.2 0.0
18/01:30pm 20.3 17.1 5.1 37 7.6 ENE 11 22 6 12 1027.4 1026.9 0.0
18/01:00pm 19.7 15.5 5.7 40 7.0 ESE 17 28 9 15 1027.9 1027.4 0.0
18/12:30pm 20.2 15.6 6.5 41 7.0 ESE 20 28 11 15 1028.4 1028.0 0.0
18/12:00pm 18.6 14.9 6.1 44 6.2 E 15 28 8 15 1028.8 1028.3 0.0
18/11:30am 18.3 14.3 6.5 46 6.0 E 17 24 9 13 1029.2 1028.7 0.0
18/11:00am 17.8 12.6 7.2 50 5.4 ESE 24 28 13 15 1029.5 1029.0 0.0
18/10:30am 16.9 13.3 8.3 57 4.5 E 17 28 9 15 1029.6 1029.1 0.0
18/10:00am 16.7 12.7 8.4 58 4.3 E 19 30 10 16 1029.6 1029.1 0.0

Other Formats:

Comma delimited format used in spreadsheet applications
http://www.bom.gov.au/fwo/IDN60801/IDN60801.95754.axf

JavaScript Object Notation format (JSON) in row-major order
http://www.bom.gov.au/fwo/IDN60801/IDN60801.95754.json